Time;durP1;ratioP1;P1;durP2;ratioP2;P2;SDS_P1;SDS_P2;PMS_P1;PMS_P2;Temp;Humidity;BMP_temperature;BMP_pressure;BME280_temperature;BME280_humidity;BME280_pressure;Samples;Min_cycle;Max_cycle;Signal;HPM_P1;HPM_P2
2023/01/24 00:00:14;;;;;;;18.07;13.40;;;1.70;99.90;;;;;;5118590;27;20464;-63
2023/01/24 00:02:42;;;;;;;16.87;12.10;;;1.70;99.90;;;;;;5118791;28;20484;-63
2023/01/24 00:05:09;;;;;;;18.00;13.60;;;1.70;99.90;;;;;;5118145;28;20811;-63
2023/01/24 00:07:37;;;;;;;17.03;12.80;;;1.70;99.90;;;;;;5119127;28;20466;-63
2023/01/24 00:10:05;;;;;;;17.73;13.70;;;1.70;99.90;;;;;;5118920;28;20460;-63
2023/01/24 00:12:34;;;;;;;14.60;11.03;;;1.70;99.90;;;;;;5118792;28;20467;-63
2023/01/24 00:15:01;;;;;;;14.80;11.43;;;1.70;99.90;;;;;;5119238;28;20462;-63
2023/01/24 00:17:28;;;;;;;15.90;11.17;;;1.70;99.90;;;;;;5118564;28;20471;-63
2023/01/24 00:19:55;;;;;;;14.93;11.70;;;1.70;99.90;;;;;;5118549;28;20464;-63
2023/01/24 00:22:22;;;;;;;16.47;11.47;;;1.70;99.90;;;;;;5137930;28;20798;-63
2023/01/24 00:24:49;;;;;;;13.63;11.30;;;1.70;99.90;;;;;;5139046;27;20434;-63
2023/01/24 00:27:17;;;;;;;17.33;13.37;;;1.80;99.90;;;;;;5139254;27;20468;-63
2023/01/24 00:29:45;;;;;;;14.97;11.97;;;1.70;99.90;;;;;;5139194;27;20756;-63
2023/01/24 00:32:12;;;;;;;16.23;11.50;;;1.70;99.90;;;;;;5139747;27;20756;-63
2023/01/24 00:34:40;;;;;;;16.67;12.70;;;1.70;99.90;;;;;;5142900;27;20466;-63
2023/01/24 00:37:07;;;;;;;16.00;11.60;;;1.70;99.90;;;;;;5122650;27;20454;-63
2023/01/24 00:39:34;;;;;;;13.67;11.30;;;1.70;99.90;;;;;;5122272;28;20467;-63
2023/01/24 00:42:01;;;;;;;15.27;11.37;;;1.70;99.90;;;;;;5123122;27;20864;-63
2023/01/24 00:44:28;;;;;;;12.97;10.57;;;1.70;99.90;;;;;;5122138;27;20467;-63
2023/01/24 00:46:57;;;;;;;16.30;12.30;;;1.70;99.90;;;;;;5122335;28;20459;-63
2023/01/24 00:49:24;;;;;;;15.83;11.73;;;1.70;99.90;;;;;;5121994;28;20458;-63
2023/01/24 00:51:51;;;;;;;13.87;10.73;;;1.70;99.90;;;;;;5125583;27;20450;-63
2023/01/24 00:54:18;;;;;;;13.27;11.10;;;1.70;99.90;;;;;;5142472;27;20874;-63
2023/01/24 00:56:45;;;;;;;15.33;11.70;;;1.70;99.90;;;;;;5142250;27;20452;-63
2023/01/24 00:59:12;;;;;;;13.77;10.70;;;1.70;99.90;;;;;;5142487;27;20456;-63
2023/01/24 01:01:39;;;;;;;13.60;11.17;;;1.70;99.90;;;;;;5141636;27;20482;-62
2023/01/24 01:04:08;;;;;;;14.80;10.77;;;1.70;99.90;;;;;;5121812;27;20495;-62
2023/01/24 01:06:35;;;;;;;14.87;10.00;;;1.70;99.90;;;;;;5121422;28;20460;-63
2023/01/24 01:09:02;;;;;;;15.63;11.97;;;1.70;99.90;;;;;;5120721;28;21037;-62
2023/01/24 01:11:30;;;;;;;12.83;10.60;;;1.70;99.90;;;;;;5120957;28;20530;-62
2023/01/24 01:13:58;;;;;;;11.60;9.73;;;1.60;99.90;;;;;;5134131;27;20486;-62
2023/01/24 01:16:25;;;;;;;12.27;10.60;;;1.60;99.90;;;;;;5142332;27;20462;-62
2023/01/24 01:18:55;;;;;;;11.50;9.60;;;1.60;99.90;;;;;;5141327;27;20434;-62
2023/01/24 01:21:24;;;;;;;13.03;10.40;;;1.60;99.90;;;;;;5141228;27;20528;-63
2023/01/24 01:23:51;;;;;;;12.63;10.40;;;1.70;99.90;;;;;;5132612;27;20521;-62
2023/01/24 01:26:21;;;;;;;13.80;10.90;;;1.70;99.90;;;;;;5121028;28;20463;-62
2023/01/24 01:28:48;;;;;;;13.97;10.80;;;1.60;99.90;;;;;;5120935;27;20466;-62
2023/01/24 01:31:16;;;;;;;13.20;10.60;;;1.60;99.90;;;;;;5120744;28;20437;-62
2023/01/24 01:33:44;;;;;;;12.10;9.40;;;1.70;99.90;;;;;;5121759;27;20460;-62
2023/01/24 01:36:11;;;;;;;14.13;11.33;;;1.70;99.90;;;;;;5128258;27;20917;-63
2023/01/24 01:38:40;;;;;;;12.97;10.30;;;1.60;99.90;;;;;;5141841;27;20558;-63
2023/01/24 01:41:07;;;;;;;13.00;10.67;;;1.60;99.90;;;;;;5140693;27;20466;-63
2023/01/24 01:43:34;;;;;;;10.73;9.00;;;1.60;99.90;;;;;;5140709;27;20879;-63
2023/01/24 01:46:14;;;;;;;10.87;8.60;;;1.70;99.90;;;;;;5139192;27;20469;-63
2023/01/24 01:48:46;;;;;;;10.80;9.00;;;1.70;99.90;;;;;;5140662;27;20469;-62
2023/01/24 01:51:18;;;;;;;12.30;9.37;;;1.60;99.90;;;;;;5140486;27;20895;-63
2023/01/24 01:53:53;;;;;;;12.80;9.30;;;1.60;99.90;;;;;;5140592;27;20536;-63
2023/01/24 01:56:27;;;;;;;10.30;9.20;;;1.60;99.90;;;;;;5122025;27;20466;-62
2023/01/24 01:58:56;;;;;;;11.40;8.90;;;1.60;99.90;;;;;;5120446;28;20456;-62
2023/01/24 02:01:23;;;;;;;9.73;8.40;;;1.60;99.90;;;;;;5119856;28;20460;-63
2023/01/24 02:04:00;;;;;;;10.30;7.97;;;1.60;99.90;;;;;;5119673;28;20486;-62
2023/01/24 02:06:42;;;;;;;12.13;9.00;;;1.60;99.90;;;;;;5120894;27;20996;-63
2023/01/24 02:09:13;;;;;;;11.80;8.47;;;1.60;99.90;;;;;;5120025;28;20538;-62
2023/01/24 02:11:43;;;;;;;9.07;8.10;;;1.60;99.90;;;;;;5119730;28;20459;-63
2023/01/24 02:16:57;;;;;;;9.80;7.83;;;1.70;99.90;;;;;;5078465;28;20924;-63
2023/01/24 02:19:44;;;;;;;9.60;7.67;;;1.60;99.90;;;;;;5119843;28;20911;-63
2023/01/24 02:22:17;;;;;;;9.03;6.97;;;1.60;99.90;;;;;;5119858;28;20582;-63
2023/01/24 02:24:54;;;;;;;8.47;7.20;;;1.60;99.90;;;;;;5120090;28;20562;-63
2023/01/24 02:27:22;;;;;;;9.00;7.40;;;1.70;99.90;;;;;;5118590;28;20463;-63
2023/01/24 02:29:51;;;;;;;8.53;7.10;;;1.60;99.90;;;;;;5119585;28;20741;-63
2023/01/24 02:32:18;;;;;;;9.13;7.03;;;1.70;99.90;;;;;;5119872;28;20737;-63
2023/01/24 02:34:45;;;;;;;9.77;6.93;;;1.70;99.90;;;;;;5119506;28;20442;-63
2023/01/24 02:37:14;;;;;;;9.53;7.57;;;1.60;99.90;;;;;;5128712;27;20448;-63
2023/01/24 02:39:47;;;;;;;8.43;7.07;;;1.60;99.90;;;;;;5138147;27;20735;-62
2023/01/24 02:42:20;;;;;;;8.67;6.40;;;1.60;99.90;;;;;;5139994;27;20585;-63
2023/01/24 02:44:54;;;;;;;8.20;6.67;;;1.60;99.90;;;;;;5140311;27;20466;-63
2023/01/24 02:47:21;;;;;;;9.17;7.10;;;1.60;99.90;;;;;;5137449;27;20459;-63
2023/01/24 02:49:48;;;;;;;8.83;6.97;;;1.60;99.90;;;;;;5119528;27;20753;-63
2023/01/24 02:54:59;;;;;;;8.07;6.60;;;1.60;99.90;;;;;;5119463;27;20454;-62
2023/01/24 03:00:13;;;;;;;8.10;6.90;;;1.50;99.90;;;;;;5119055;28;20438;-63
2023/01/24 03:02:40;;;;;;;7.33;6.40;;;1.50;99.90;;;;;;5118542;28;20490;-63
2023/01/24 03:05:08;;;;;;;9.07;7.47;;;1.60;99.90;;;;;;5119823;27;20756;-62
2023/01/24 03:07:44;;;;;;;7.63;6.50;;;1.60;99.90;;;;;;5117869;28;20459;-62
2023/01/24 03:10:11;;;;;;;8.87;7.30;;;1.60;99.90;;;;;;5119013;27;20463;-62
2023/01/24 03:34:48;;;;;;;10.80;7.03;;;1.50;99.90;;;;;;5118315;28;20450;-62
2023/01/24 03:37:17;;;;;;;8.63;7.23;;;1.50;99.90;;;;;;5118308;27;20478;-62
2023/01/24 03:39:58;;;;;;;8.17;6.70;;;1.50;99.90;;;;;;5118134;28;20442;-62
2023/01/24 03:42:27;;;;;;;9.60;7.03;;;1.50;99.90;;;;;;5118361;28;20475;-62
2023/01/24 03:44:55;;;;;;;9.00;7.40;;;1.50;99.90;;;;;;5118589;28;20460;-62
2023/01/24 03:47:23;;;;;;;8.93;7.00;;;1.50;99.90;;;;;;5118250;27;20467;-63
2023/01/24 03:52:35;;;;;;;9.83;6.97;;;1.50;99.90;;;;;;5117972;28;20464;-63
2023/01/24 03:55:02;;;;;;;8.33;7.17;;;1.50;99.90;;;;;;5118571;28;20752;-62
2023/01/24 03:57:30;;;;;;;7.67;6.43;;;1.50;99.90;;;;;;5118910;28;20456;-62
2023/01/24 03:59:57;;;;;;;8.77;6.93;;;1.50;99.90;;;;;;5117751;28;20455;-62
2023/01/24 04:02:25;;;;;;;8.80;6.90;;;1.50;99.90;;;;;;5117995;28;20495;-63
2023/01/24 04:07:37;;;;;;;11.23;8.37;;;1.50;99.90;;;;;;5120586;27;20442;-62
2023/01/24 04:10:05;;;;;;;10.00;7.20;;;1.50;99.90;;;;;;5137644;27;20745;-62
2023/01/24 04:12:33;;;;;;;10.43;7.83;;;1.50;99.90;;;;;;5138179;27;20525;-62
2023/01/24 04:15:00;;;;;;;8.50;7.00;;;1.50;99.90;;;;;;5138460;27;20455;-62
2023/01/24 04:17:28;;;;;;;9.57;7.83;;;1.40;99.90;;;;;;5138265;28;20707;-62
2023/01/24 04:19:56;;;;;;;9.80;8.20;;;1.40;99.90;;;;;;5136094;27;20437;-62
2023/01/24 04:22:23;;;;;;;11.73;7.80;;;1.40;99.90;;;;;;5137890;28;20451;-62
2023/01/24 04:24:50;;;;;;;11.10;8.83;;;1.40;99.90;;;;;;5138340;28;20936;-62
2023/01/24 04:27:17;;;;;;;9.80;7.93;;;1.40;99.90;;;;;;5138251;28;20462;-62
2023/01/24 04:29:44;;;;;;;11.87;8.30;;;1.40;99.90;;;;;;5123508;28;20459;-62
2023/01/24 04:32:13;;;;;;;10.03;8.50;;;1.40;99.90;;;;;;5118638;28;20487;-62
2023/01/24 04:34:48;;;;;;;9.30;7.50;;;1.50;99.90;;;;;;5117297;28;20832;-62
2023/01/24 04:37:15;;;;;;;10.53;8.20;;;1.40;99.90;;;;;;5116936;28;20534;-63
2023/01/24 04:39:42;;;;;;;11.37;7.90;;;1.40;99.90;;;;;;5126433;28;20494;-63
2023/01/24 04:42:09;;;;;;;9.33;8.20;;;1.50;99.90;;;;;;5138085;28;20985;-62
2023/01/24 04:44:42;;;;;;;9.70;8.37;;;1.40;99.90;;;;;;5137864;28;20436;-63
2023/01/24 04:47:09;;;;;;;10.50;8.60;;;1.40;99.90;;;;;;5137979;28;20490;-62
2023/01/24 04:49:40;;;;;;;12.20;9.30;;;1.40;99.90;;;;;;5135810;28;20455;-62
2023/01/24 04:52:11;;;;;;;9.97;8.27;;;1.40;99.90;;;;;;5129730;27;20438;-62
2023/01/24 04:54:38;;;;;;;10.10;8.93;;;1.50;99.90;;;;;;5116849;28;20499;-62
2023/01/24 04:57:05;;;;;;;11.50;9.73;;;1.40;99.90;;;;;;5117394;28;20520;-62
2023/01/24 04:59:32;;;;;;;10.20;8.70;;;1.30;99.90;;;;;;5116796;28;20438;-62
2023/01/24 05:01:59;;;;;;;9.80;7.97;;;1.40;99.90;;;;;;5117535;28;20463;-63
2023/01/24 05:04:26;;;;;;;10.00;8.17;;;1.30;99.90;;;;;;5116995;28;20430;-62
2023/01/24 05:06:53;;;;;;;11.33;8.80;;;1.30;99.90;;;;;;5117457;28;20460;-62
2023/01/24 05:09:22;;;;;;;9.43;8.20;;;1.30;99.90;;;;;;5116880;28;20463;-62
2023/01/24 05:11:49;;;;;;;12.07;8.63;;;1.30;99.90;;;;;;5132254;28;20841;-62
2023/01/24 05:14:16;;;;;;;13.33;9.00;;;1.30;99.90;;;;;;5132851;28;20593;-62
2023/01/24 05:16:44;;;;;;;11.67;8.93;;;1.40;99.90;;;;;;5132167;27;20458;-62
2023/01/24 05:19:11;;;;;;;11.73;9.23;;;1.30;99.90;;;;;;5141374;27;20470;-62
2023/01/24 05:21:38;;;;;;;11.57;10.37;;;1.40;99.90;;;;;;5130877;27;20474;-62
2023/01/24 05:24:06;;;;;;;14.50;10.93;;;1.30;99.90;;;;;;5126197;27;20494;-62
2023/01/24 05:26:35;;;;;;;11.17;8.63;;;1.30;99.90;;;;;;5141378;27;20458;-62
2023/01/24 05:29:02;;;;;;;10.47;8.63;;;1.40;99.90;;;;;;5140956;27;20465;-62
2023/01/24 05:31:29;;;;;;;11.53;9.17;;;1.40;99.90;;;;;;5136221;27;20460;-62
2023/01/24 05:33:56;;;;;;;10.47;8.20;;;1.30;99.90;;;;;;5126631;27;20691;-63
2023/01/24 05:36:25;;;;;;;10.53;9.07;;;1.30;99.90;;;;;;5137848;27;20467;-62
2023/01/24 05:38:52;;;;;;;11.43;9.23;;;1.30;99.90;;;;;;5141237;27;20490;-63
2023/01/24 05:41:20;;;;;;;11.23;9.53;;;1.30;99.90;;;;;;5139868;27;20546;-62
2023/01/24 05:43:49;;;;;;;11.20;9.83;;;1.30;99.90;;;;;;5133699;27;20491;-61
2023/01/24 05:46:19;;;;;;;14.23;9.20;;;1.30;99.90;;;;;;5136560;27;20477;-62
2023/01/24 05:48:50;;;;;;;12.07;8.93;;;1.30;99.90;;;;;;5141140;27;20468;-62
2023/01/24 05:51:21;;;;;;;12.53;9.90;;;1.30;99.90;;;;;;5140312;27;20867;-62
2023/01/24 05:53:48;;;;;;;11.47;9.00;;;1.30;99.90;;;;;;5138216;27;20511;-62
2023/01/24 05:56:18;;;;;;;10.63;9.03;;;1.30;99.90;;;;;;5139770;27;20473;-62
2023/01/24 05:58:47;;;;;;;11.53;8.83;;;1.30;99.90;;;;;;5132268;27;20455;-62
2023/01/24 06:01:17;;;;;;;12.47;9.20;;;1.20;99.90;;;;;;5137445;27;20486;-62
2023/01/24 06:03:46;;;;;;;10.97;8.37;;;1.30;99.90;;;;;;5138957;27;20869;-62
2023/01/24 06:06:15;;;;;;;12.77;11.00;;;1.20;99.90;;;;;;5133646;27;20464;-62
2023/01/24 06:08:46;;;;;;;13.13;11.10;;;1.20;99.90;;;;;;5131774;27;20458;-62
2023/01/24 06:11:15;;;;;;;13.10;10.10;;;1.30;99.90;;;;;;5137691;27;20523;-62
2023/01/24 06:13:43;;;;;;;14.60;10.77;;;1.30;99.90;;;;;;5134931;27;20514;-62
2023/01/24 06:16:13;;;;;;;14.40;10.50;;;1.30;99.90;;;;;;5124149;27;20558;-62
2023/01/24 06:18:42;;;;;;;13.20;9.73;;;1.30;99.90;;;;;;5134801;27;20462;-62
2023/01/24 06:21:19;;;;;;;12.43;9.53;;;1.30;99.90;;;;;;5136621;27;20458;-62
2023/01/24 06:23:46;;;;;;;13.47;10.40;;;1.30;99.90;;;;;;5130599;27;20586;-62
2023/01/24 06:26:14;;;;;;;12.53;9.70;;;1.30;99.90;;;;;;5124674;27;20508;-62
2023/01/24 06:28:42;;;;;;;11.10;9.53;;;1.40;99.90;;;;;;5135500;27;20441;-62
2023/01/24 06:31:21;;;;;;;13.70;10.50;;;1.30;99.90;;;;;;5138768;27;20935;-62
2023/01/24 06:34:07;;;;;;;13.10;10.50;;;1.30;99.90;;;;;;5138078;27;20454;-63
2023/01/24 06:36:47;;;;;;;12.23;10.20;;;1.30;99.90;;;;;;5133802;27;20938;-62
2023/01/24 06:39:16;;;;;;;14.27;10.30;;;1.20;99.90;;;;;;5130860;27;20561;-63
2023/01/24 06:41:44;;;;;;;13.93;11.20;;;1.30;99.90;;;;;;5139887;27;20441;-63
2023/01/24 06:44:12;;;;;;;12.20;9.73;;;1.30;99.90;;;;;;5139365;27;20497;-63
2023/01/24 06:46:39;;;;;;;14.50;11.00;;;1.30;99.90;;;;;;5138481;27;20461;-63
2023/01/24 06:49:07;;;;;;;12.20;10.40;;;1.20;99.90;;;;;;5135304;27;20889;-63
2023/01/24 06:51:35;;;;;;;15.37;11.00;;;1.20;99.90;;;;;;5139836;27;20458;-62
2023/01/24 06:54:02;;;;;;;13.77;11.00;;;1.20;99.90;;;;;;5139727;27;20451;-62
2023/01/24 06:56:29;;;;;;;15.03;10.90;;;1.30;99.90;;;;;;5138401;27;20511;-63
2023/01/24 06:58:56;;;;;;;15.30;11.27;;;1.30;99.90;;;;;;5130841;27;20461;-63
2023/01/24 07:01:23;;;;;;;15.20;11.33;;;1.30;99.90;;;;;;5132760;27;20459;-62
2023/01/24 07:03:50;;;;;;;14.10;10.67;;;1.30;99.90;;;;;;5133457;27;20771;-63
2023/01/24 07:06:21;;;;;;;15.20;11.47;;;1.30;99.90;;;;;;5139339;27;20462;-63
2023/01/24 07:08:48;;;;;;;15.63;11.67;;;1.30;99.90;;;;;;5137294;27;20472;-63
2023/01/24 07:11:15;;;;;;;15.87;11.73;;;1.30;99.90;;;;;;5137900;27;20469;-63
2023/01/24 07:13:42;;;;;;;13.80;10.90;;;1.30;99.90;;;;;;5138894;27;20810;-63
2023/01/24 07:16:09;;;;;;;13.43;11.03;;;1.30;99.90;;;;;;5138814;27;20450;-63
2023/01/24 07:18:37;;;;;;;12.73;11.33;;;1.30;99.90;;;;;;5137539;27;20457;-63
2023/01/24 07:21:06;;;;;;;15.60;10.73;;;1.30;99.90;;;;;;5139240;27;20459;-63
2023/01/24 07:23:36;;;;;;;12.07;10.27;;;1.40;99.90;;;;;;5129368;27;20464;-62
2023/01/24 07:26:04;;;;;;;14.53;11.60;;;1.40;99.90;;;;;;5132363;27;20463;-62
2023/01/24 07:28:31;;;;;;;12.83;11.10;;;1.50;99.90;;;;;;5132314;27;20460;-62
2023/01/24 07:30:58;;;;;;;14.20;11.73;;;1.40;99.90;;;;;;5130190;27;20455;-63
2023/01/24 07:33:26;;;;;;;13.97;10.40;;;1.40;99.90;;;;;;5124794;27;20464;-63
2023/01/24 07:35:53;;;;;;;12.30;10.40;;;1.40;99.90;;;;;;5131643;27;20470;-63
2023/01/24 07:38:20;;;;;;;14.47;11.30;;;1.30;99.90;;;;;;5134386;27;20466;-63
2023/01/24 07:40:49;;;;;;;14.00;10.70;;;1.40;99.90;;;;;;5130502;27;20490;-63
2023/01/24 07:43:16;;;;;;;16.50;12.27;;;1.40;99.90;;;;;;5133962;27;20492;-63
2023/01/24 07:45:46;;;;;;;16.67;11.67;;;1.40;99.90;;;;;;5136426;27;20470;-63
2023/01/24 07:48:13;;;;;;;15.40;11.70;;;1.40;99.90;;;;;;5134235;27;20429;-63
2023/01/24 07:50:40;;;;;;;15.03;12.03;;;1.40;99.90;;;;;;5134764;27;20782;-63
2023/01/24 07:53:07;;;;;;;16.80;11.80;;;1.40;99.90;;;;;;5136269;27;20465;-63
2023/01/24 07:55:34;;;;;;;12.27;10.20;;;1.40;99.90;;;;;;5123840;27;20723;-63
2023/01/24 07:58:03;;;;;;;15.27;11.53;;;1.40;99.90;;;;;;5137653;27;20747;-63
2023/01/24 08:00:31;;;;;;;15.03;11.57;;;1.50;99.90;;;;;;5133501;27;20891;-63
2023/01/24 08:02:58;;;;;;;16.80;12.23;;;1.40;99.90;;;;;;5138178;27;20454;-63
2023/01/24 08:05:25;;;;;;;14.03;11.30;;;1.50;99.90;;;;;;5137002;27;20462;-63
2023/01/24 08:07:54;;;;;;;19.27;13.67;;;1.50;99.90;;;;;;5137612;27;20455;-62
2023/01/24 08:10:22;;;;;;;18.73;12.17;;;1.50;99.90;;;;;;5137175;27;20469;-62
2023/01/24 08:12:50;;;;;;;20.10;13.23;;;1.60;99.90;;;;;;5127196;27;21016;-62
2023/01/24 08:15:18;;;;;;;16.20;12.10;;;1.60;99.90;;;;;;5133523;27;20462;-62
2023/01/24 08:17:45;;;;;;;18.93;11.83;;;1.60;99.90;;;;;;5137755;27;20462;-61
2023/01/24 08:20:13;;;;;;;16.87;13.40;;;1.60;99.90;;;;;;5136616;27;20772;-62
2023/01/24 08:22:42;;;;;;;16.50;11.33;;;1.60;99.90;;;;;;5136845;27;20459;-62
2023/01/24 08:25:10;;;;;;;15.50;12.33;;;1.60;99.90;;;;;;5134557;27;20480;-61
2023/01/24 08:27:41;;;;;;;14.00;11.80;;;1.60;99.90;;;;;;5136912;27;20457;-58
2023/01/24 08:30:10;;;;;;;14.80;13.20;;;1.70;99.90;;;;;;5136569;27;20775;-61
2023/01/24 08:32:39;;;;;;;17.17;12.10;;;1.60;99.90;;;;;;5128273;27;20785;-62
2023/01/24 08:35:07;;;;;;;19.03;13.57;;;1.70;99.90;;;;;;5134935;27;20459;-61
2023/01/24 08:37:34;;;;;;;15.00;11.60;;;1.60;99.90;;;;;;5124256;27;20471;-60
2023/01/24 08:40:01;;;;;;;15.83;11.63;;;1.70;99.90;;;;;;5129691;28;20459;-59
2023/01/24 08:42:28;;;;;;;14.03;11.27;;;1.60;99.90;;;;;;5136495;27;20467;-60
2023/01/24 08:44:55;;;;;;;15.73;12.53;;;1.70;99.90;;;;;;5136968;27;20491;-61
2023/01/24 08:47:22;;;;;;;14.60;12.17;;;1.70;99.90;;;;;;5135829;27;20469;-62
2023/01/24 08:49:51;;;;;;;15.50;12.47;;;1.70;99.90;;;;;;5137957;27;20437;-62
2023/01/24 08:52:18;;;;;;;14.83;12.13;;;1.70;99.90;;;;;;5130722;27;20467;-61
2023/01/24 08:54:45;;;;;;;17.87;12.10;;;1.70;99.90;;;;;;5122413;27;20461;-60
2023/01/24 08:57:12;;;;;;;13.60;11.00;;;1.70;99.90;;;;;;5131798;27;20467;-61
2023/01/24 08:59:39;;;;;;;12.80;10.73;;;1.80;99.90;;;;;;5140437;27;20492;-60
2023/01/24 09:02:06;;;;;;;13.60;11.03;;;1.70;99.90;;;;;;5139280;27;20458;-62
2023/01/24 09:04:33;;;;;;;13.90;11.60;;;1.80;99.90;;;;;;5135137;27;20487;-62
2023/01/24 09:07:02;;;;;;;13.77;11.63;;;1.90;99.90;;;;;;5128580;27;20903;-60
2023/01/24 09:09:29;;;;;;;14.27;12.10;;;1.80;99.90;;;;;;5139895;27;20458;-61
2023/01/24 09:11:56;;;;;;;14.13;11.63;;;1.80;99.90;;;;;;5141342;27;20463;-60
2023/01/24 09:14:23;;;;;;;13.97;10.60;;;1.80;99.90;;;;;;5135348;27;20775;-62
2023/01/24 09:16:50;;;;;;;13.70;11.67;;;1.80;99.90;;;;;;5137995;27;20461;-62
2023/01/24 09:19:18;;;;;;;14.37;11.90;;;1.90;99.90;;;;;;5135136;27;20458;-61
2023/01/24 09:21:47;;;;;;;14.30;11.83;;;1.90;99.90;;;;;;5140161;27;20746;-60
2023/01/24 09:24:16;;;;;;;18.40;14.83;;;1.80;99.90;;;;;;5139074;27;20490;-61
2023/01/24 09:26:44;;;;;;;15.50;13.73;;;1.80;99.90;;;;;;5127380;27;20455;-60
2023/01/24 09:29:12;;;;;;;14.17;11.87;;;1.80;99.90;;;;;;5126740;27;20715;-61
2023/01/24 09:31:39;;;;;;;14.33;12.03;;;1.90;99.90;;;;;;5139113;27;20871;-62
2023/01/24 09:34:06;;;;;;;14.93;12.90;;;1.90;99.90;;;;;;5137512;27;20553;-61
2023/01/24 09:36:33;;;;;;;16.73;12.83;;;1.90;99.90;;;;;;5135611;27;20454;-59
2023/01/24 09:39:00;;;;;;;16.47;12.70;;;1.90;99.90;;;;;;5139291;27;20466;-59
2023/01/24 09:41:42;;;;;;;27.23;21.77;;;1.80;94.00;;;;;;5132751;27;20565;-61
2023/01/24 09:44:17;;;;;;;16.43;13.23;;;1.80;99.90;;;;;;5136899;27;20478;-61
2023/01/24 09:46:49;;;;;;;19.90;15.77;;;1.90;1.00;;;;;;5139831;27;20469;-61
2023/01/24 09:49:22;;;;;;;14.70;12.10;;;2.00;99.90;;;;;;5129873;27;20438;-58
2023/01/24 09:51:53;;;;;;;11.67;9.60;;;2.10;1.00;;;;;;5138276;27;20440;-60
2023/01/24 09:54:30;;;;;;;13.20;10.07;;;2.00;64.30;;;;;;5135589;27;20455;-61
2023/01/24 09:56:59;;;;;;;13.20;10.83;;;2.00;1.00;;;;;;5125665;27;20429;-60
2023/01/24 09:59:37;;;;;;;12.20;10.43;;;2.10;99.90;;;;;;5129288;27;20471;-61
2023/01/24 10:02:16;;;;;;;13.87;11.20;;;2.00;99.90;;;;;;5137404;27;20454;-61
2023/01/24 10:04:44;;;;;;;13.67;10.77;;;2.10;99.90;;;;;;5136787;27;20942;-61
2023/01/24 10:07:50;;;;;;;12.50;10.13;;;2.10;99.90;;;;;;5138435;27;20462;-61
2023/01/24 10:10:33;;;;;;;14.23;10.90;;;2.20;92.10;;;;;;5097657;27;21046;-62
2023/01/24 10:13:09;;;;;;;12.97;9.90;;;2.10;99.90;;;;;;5136792;27;20475;-60
2023/01/24 10:15:46;;;;;;;12.30;10.60;;;2.10;99.90;;;;;;5133589;27;20454;-61
2023/01/24 10:18:34;;;;;;;14.33;10.63;;;2.20;38.60;;;;;;5137815;27;20462;-58
2023/01/24 10:21:16;;;;;;;12.30;10.53;;;2.20;1.00;;;;;;5125007;27;20876;-62
2023/01/24 10:23:47;;;;;;;13.17;11.17;;;2.20;1.00;;;;;;5138343;27;20879;-61
2023/01/24 10:26:19;;;;;;;12.97;10.93;;;2.20;1.00;;;;;;5138977;27;20433;-61
2023/01/24 10:28:50;;;;;;;12.60;10.40;;;2.10;1.00;;;;;;5127505;27;20486;-62
2023/01/24 10:31:22;;;;;;;12.80;10.10;;;2.20;1.00;;;;;;5140034;27;20461;-60
2023/01/24 10:33:52;;;;;;;13.23;9.70;;;2.20;1.00;;;;;;5139936;27;20440;-61
2023/01/24 10:36:29;;;;;;;13.03;10.37;;;2.20;1.00;;;;;;5138020;27;20759;-62
2023/01/24 10:38:56;;;;;;;15.07;11.00;;;2.30;25.50;;;;;;5132588;27;20489;-61
2023/01/24 10:41:24;;;;;;;11.47;9.70;;;2.30;1.00;;;;;;5130652;27;20459;-62
2023/01/24 10:43:59;;;;;;;13.90;10.80;;;2.30;1.00;;;;;;5135911;27;20715;-62
2023/01/24 10:47:02;;;;;;;13.70;11.10;;;2.20;1.00;;;;;;5139882;27;20886;-60
2023/01/24 10:49:32;;;;;;;11.50;9.70;;;2.30;1.00;;;;;;5123515;27;20826;-62
2023/01/24 10:52:12;;;;;;;13.63;10.20;;;2.30;1.00;;;;;;5132601;27;20459;-61
2023/01/24 10:54:50;;;;;;;11.70;10.23;;;2.20;1.00;;;;;;5128653;27;20455;-61
2023/01/24 10:57:36;;;;;;;13.43;9.90;;;2.10;1.00;;;;;;5139618;27;20515;-62
2023/01/24 11:00:18;;;;;;;15.53;11.23;;;2.20;1.00;;;;;;5136563;27;20454;-62
2023/01/24 11:02:49;;;;;;;14.20;10.30;;;2.20;1.00;;;;;;5132035;27;20463;-59
2023/01/24 11:05:16;;;;;;;12.93;9.80;;;2.30;1.00;;;;;;5138941;27;20482;-63
2023/01/24 11:07:47;;;;;;;13.60;12.20;;;2.20;1.00;;;;;;5139070;27;20875;-63
2023/01/24 11:10:22;;;;;;;12.63;10.90;;;2.20;1.00;;;;;;5124682;27;20459;-63
2023/01/24 11:12:51;;;;;;;10.50;9.03;;;2.30;1.00;;;;;;5132910;27;20583;-61
2023/01/24 11:15:25;;;;;;;11.70;10.10;;;2.30;1.00;;;;;;5130326;27;20660;-62
2023/01/24 11:17:57;;;;;;;12.60;10.80;;;2.20;1.00;;;;;;5139498;27;20466;-61
2023/01/24 11:20:30;;;;;;;12.00;10.40;;;2.30;1.00;;;;;;5136550;27;20466;-60
2023/01/24 11:23:12;;;;;;;14.00;11.10;;;2.40;1.00;;;;;;5137515;27;20440;-61
2023/01/24 11:25:52;;;;;;;11.80;9.70;;;2.40;1.00;;;;;;5139169;27;20539;-62
2023/01/24 11:28:26;;;;;;;12.03;10.13;;;2.50;1.00;;;;;;5138711;27;20469;-63
2023/01/24 11:30:56;;;;;;;12.23;10.37;;;2.50;99.90;;;;;;5137391;27;20463;-63
2023/01/24 11:33:50;;;;;;;12.40;10.67;;;2.60;99.90;;;;;;5135952;27;20463;-63
2023/01/24 11:36:31;;;;;;;12.67;11.37;;;2.60;99.90;;;;;;5131862;27;20440;-63
2023/01/24 11:39:03;;;;;;;14.60;9.93;;;2.60;99.90;;;;;;5132704;27;20473;-64
2023/01/24 11:41:36;;;;;;;12.43;9.90;;;2.60;99.90;;;;;;5120515;27;20463;-63
2023/01/24 11:44:34;;;;;;;11.43;9.70;;;2.70;99.90;;;;;;5137130;27;20430;-64
2023/01/24 11:47:09;;;;;;;10.60;9.30;;;2.60;99.90;;;;;;5138548;27;20865;-64
2023/01/24 11:50:03;;;;;;;11.03;9.93;;;2.60;99.90;;;;;;5138683;27;20568;-64
2023/01/24 11:52:49;;;;;;;15.23;10.83;;;2.70;1.00;;;;;;5127084;27;20748;-64
2023/01/24 11:55:34;;;;;;;12.67;10.47;;;2.80;1.00;;;;;;5137451;27;20482;-64
2023/01/24 11:58:19;;;;;;;11.40;9.40;;;2.80;1.00;;;;;;5138492;27;20454;-64
2023/01/24 12:00:57;;;;;;;13.03;11.00;;;2.70;1.00;;;;;;5137153;27;20459;-64
2023/01/24 12:03:49;;;;;;;11.00;9.60;;;2.80;1.00;;;;;;5138418;27;20480;-64
2023/01/24 12:06:30;;;;;;;13.40;10.77;;;2.70;1.00;;;;;;5121757;27;20491;-64
2023/01/24 12:09:09;;;;;;;13.10;10.60;;;2.80;1.00;;;;;;5134260;27;20463;-65
2023/01/24 12:11:42;;;;;;;11.80;9.60;;;2.80;1.00;;;;;;5136187;27;20459;-65
2023/01/24 12:14:47;;;;;;;10.90;9.80;;;2.70;1.00;;;;;;5137239;27;20799;-65
2023/01/24 12:17:28;;;;;;;11.87;10.50;;;2.80;1.00;;;;;;5128035;27;20466;-65
2023/01/24 12:20:11;;;;;;;11.97;9.97;;;2.70;1.00;;;;;;5136618;27;20473;-64
2023/01/24 12:22:39;;;;;;;14.57;9.53;;;2.70;1.00;;;;;;5133034;28;20466;-64
2023/01/24 12:25:18;;;;;;;12.93;10.57;;;2.80;1.00;;;;;;5118991;28;20483;-64
2023/01/24 12:27:46;;;;;;;11.90;10.23;;;2.70;1.00;;;;;;5138432;27;20465;-64
2023/01/24 12:30:22;;;;;;;12.33;10.17;;;2.70;1.00;;;;;;5140803;27;20442;-65
2023/01/24 12:32:54;;;;;;;13.80;10.53;;;2.60;1.00;;;;;;5140098;27;20458;-64
2023/01/24 12:35:30;;;;;;;12.53;10.60;;;2.60;1.00;;;;;;5130108;27;20494;-64
2023/01/24 12:38:04;;;;;;;11.47;9.63;;;2.70;1.00;;;;;;5132574;27;20469;-64
2023/01/24 12:40:45;;;;;;;15.17;10.30;;;2.70;1.00;;;;;;5140533;27;20466;-65
2023/01/24 12:43:20;;;;;;;14.90;10.17;;;2.70;1.00;;;;;;5140684;27;20760;-64
2023/01/24 12:45:59;;;;;;;13.37;10.83;;;2.80;1.00;;;;;;5140589;27;20482;-64
2023/01/24 12:48:35;;;;;;;10.23;9.13;;;2.70;1.00;;;;;;5121279;27;20855;-64
2023/01/24 12:51:14;;;;;;;12.23;10.67;;;2.80;1.00;;;;;;5139500;27;20454;-64
2023/01/24 12:53:51;;;;;;;12.50;9.70;;;2.80;1.00;;;;;;5138902;27;20462;-65
2023/01/24 12:56:23;;;;;;;13.00;11.03;;;2.90;1.00;;;;;;5138726;27;20480;-64
2023/01/24 12:58:52;;;;;;;12.13;10.73;;;2.80;1.00;;;;;;5132382;27;20454;-65
2023/01/24 13:01:48;;;;;;;13.33;10.83;;;2.90;1.00;;;;;;5134644;27;20859;-65
2023/01/24 13:04:21;;;;;;;13.63;10.57;;;2.90;1.00;;;;;;5124186;27;20867;-65
2023/01/24 13:07:00;;;;;;;13.77;11.97;;;2.90;1.00;;;;;;5139090;27;20539;-65
2023/01/24 13:09:36;;;;;;;14.47;12.03;;;3.00;1.00;;;;;;5128823;27;20480;-64
2023/01/24 13:12:11;;;;;;;14.70;11.30;;;3.00;1.00;;;;;;5131384;27;20441;-64
2023/01/24 13:14:41;;;;;;;15.57;11.57;;;2.90;1.00;;;;;;5131749;27;20903;-64
2023/01/24 13:17:21;;;;;;;12.90;11.00;;;2.90;1.00;;;;;;5139488;27;20458;-64
2023/01/24 13:20:03;;;;;;;13.43;11.80;;;3.00;1.00;;;;;;5132148;27;20460;-64
2023/01/24 13:22:51;;;;;;;11.97;10.70;;;2.90;1.00;;;;;;5121570;27;20462;-64
2023/01/24 13:25:51;;;;;;;12.93;10.40;;;2.80;1.00;;;;;;5140497;27;20569;-64
2023/01/24 13:28:26;;;;;;;12.67;10.97;;;2.70;1.00;;;;;;5139194;27;20462;-63
2023/01/24 13:31:04;;;;;;;13.93;11.70;;;2.70;1.00;;;;;;5139966;27;20912;-64
2023/01/24 13:33:38;;;;;;;14.23;11.60;;;2.70;1.00;;;;;;5125492;27;20467;-64
2023/01/24 13:36:07;;;;;;;15.73;11.43;;;2.80;1.00;;;;;;5137829;27;20699;-64
2023/01/24 13:38:41;;;;;;;14.23;11.87;;;2.80;1.00;;;;;;5136775;27;20465;-64